sensor_id;sensor_type;location;lat;lon;timestamp;P1;durP1;ratioP1;P2;durP2;ratioP2
5483;SDS011;2764;48.794;8.326;2022-11-20T00:00:54;7.60;;;5.00;;
5483;SDS011;2764;48.794;8.326;2022-11-20T00:01:56;7.10;;;5.22;;
5483;SDS011;2764;48.794;8.326;2022-11-20T00:02:58;4.93;;;4.47;;
5483;SDS011;2764;48.794;8.326;2022-11-20T00:03:59;6.57;;;5.45;;
5483;SDS011;2764;48.794;8.326;2022-11-20T00:05:01;7.03;;;5.45;;
5483;SDS011;2764;48.794;8.326;2022-11-20T00:06:06;7.68;;;4.93;;
5483;SDS011;2764;48.794;8.326;2022-11-20T00:07:10;6.22;;;5.45;;
5483;SDS011;2764;48.794;8.326;2022-11-20T00:08:12;6.68;;;5.70;;
5483;SDS011;2764;48.794;8.326;2022-11-20T00:09:13;7.40;;;5.60;;
5483;SDS011;2764;48.794;8.326;2022-11-20T00:10:15;7.13;;;5.50;;
5483;SDS011;2764;48.794;8.326;2022-11-20T00:11:18;13.05;;;5.10;;
5483;SDS011;2764;48.794;8.326;2022-11-20T00:12:21;7.85;;;5.75;;
5483;SDS011;2764;48.794;8.326;2022-11-20T00:13:22;7.72;;;5.35;;
5483;SDS011;2764;48.794;8.326;2022-11-20T00:14:24;5.57;;;5.07;;
5483;SDS011;2764;48.794;8.326;2022-11-20T00:15:26;5.18;;;4.78;;
5483;SDS011;2764;48.794;8.326;2022-11-20T00:16:28;4.38;;;4.10;;
5483;SDS011;2764;48.794;8.326;2022-11-20T00:17:32;5.40;;;4.80;;
5483;SDS011;2764;48.794;8.326;2022-11-20T00:18:34;4.38;;;4.07;;
5483;SDS011;2764;48.794;8.326;2022-11-20T00:19:36;5.80;;;4.35;;
5483;SDS011;2764;48.794;8.326;2022-11-20T00:20:37;4.50;;;4.10;;
5483;SDS011;2764;48.794;8.326;2022-11-20T00:21:39;10.20;;;4.85;;
5483;SDS011;2764;48.794;8.326;2022-11-20T00:22:40;6.05;;;4.35;;
5483;SDS011;2764;48.794;8.326;2022-11-20T00:23:42;4.82;;;4.03;;
5483;SDS011;2764;48.794;8.326;2022-11-20T00:24:44;4.75;;;4.30;;
5483;SDS011;2764;48.794;8.326;2022-11-20T00:25:46;6.68;;;4.63;;
5483;SDS011;2764;48.794;8.326;2022-11-20T00:26:47;4.53;;;3.50;;
5483;SDS011;2764;48.794;8.326;2022-11-20T00:27:49;6.60;;;4.63;;
5483;SDS011;2764;48.794;8.326;2022-11-20T00:28:56;4.55;;;4.13;;
5483;SDS011;2764;48.794;8.326;2022-11-20T00:30:00;4.28;;;4.03;;
5483;SDS011;2764;48.794;8.326;2022-11-20T00:31:06;5.05;;;4.30;;
5483;SDS011;2764;48.794;8.326;2022-11-20T00:32:13;4.30;;;3.92;;
5483;SDS011;2764;48.794;8.326;2022-11-20T00:33:14;7.07;;;4.90;;
5483;SDS011;2764;48.794;8.326;2022-11-20T00:34:16;4.50;;;4.10;;
5483;SDS011;2764;48.794;8.326;2022-11-20T00:35:18;5.70;;;4.50;;
5483;SDS011;2764;48.794;8.326;2022-11-20T00:36:20;4.38;;;3.97;;
5483;SDS011;2764;48.794;8.326;2022-11-20T00:37:23;7.90;;;4.88;;
5483;SDS011;2764;48.794;8.326;2022-11-20T00:38:25;5.50;;;4.40;;
5483;SDS011;2764;48.794;8.326;2022-11-20T00:39:26;7.03;;;4.68;;
5483;SDS011;2764;48.794;8.326;2022-11-20T00:40:28;4.78;;;4.38;;
5483;SDS011;2764;48.794;8.326;2022-11-20T00:41:30;5.50;;;4.97;;
5483;SDS011;2764;48.794;8.326;2022-11-20T00:42:31;4.80;;;4.40;;
5483;SDS011;2764;48.794;8.326;2022-11-20T00:43:34;9.23;;;4.47;;
5483;SDS011;2764;48.794;8.326;2022-11-20T00:44:35;7.60;;;4.97;;
5483;SDS011;2764;48.794;8.326;2022-11-20T00:45:37;5.93;;;5.07;;
5483;SDS011;2764;48.794;8.326;2022-11-20T00:46:39;5.10;;;4.60;;
5483;SDS011;2764;48.794;8.326;2022-11-20T00:47:40;8.27;;;5.75;;
5483;SDS011;2764;48.794;8.326;2022-11-20T00:48:42;5.35;;;4.85;;
5483;SDS011;2764;48.794;8.326;2022-11-20T00:49:45;6.60;;;4.55;;
5483;SDS011;2764;48.794;8.326;2022-11-20T00:50:46;4.70;;;4.30;;
5483;SDS011;2764;48.794;8.326;2022-11-20T00:51:48;5.50;;;5.00;;
5483;SDS011;2764;48.794;8.326;2022-11-20T00:52:49;5.40;;;4.90;;
5483;SDS011;2764;48.794;8.326;2022-11-20T00:53:51;7.93;;;5.47;;
5483;SDS011;2764;48.794;8.326;2022-11-20T00:54:53;10.80;;;5.40;;
5483;SDS011;2764;48.794;8.326;2022-11-20T00:55:55;6.18;;;4.70;;
5483;SDS011;2764;48.794;8.326;2022-11-20T00:56:58;4.88;;;4.57;;
5483;SDS011;2764;48.794;8.326;2022-11-20T00:58:00;7.07;;;4.13;;
5483;SDS011;2764;48.794;8.326;2022-11-20T00:59:05;5.47;;;4.60;;
5483;SDS011;2764;48.794;8.326;2022-11-20T01:00:07;5.45;;;4.60;;
5483;SDS011;2764;48.794;8.326;2022-11-20T01:01:10;5.13;;;4.63;;
5483;SDS011;2764;48.794;8.326;2022-11-20T01:02:15;5.70;;;5.03;;
5483;SDS011;2764;48.794;8.326;2022-11-20T01:03:18;4.90;;;4.50;;
5483;SDS011;2764;48.794;8.326;2022-11-20T01:04:27;5.57;;;4.65;;
5483;SDS011;2764;48.794;8.326;2022-11-20T01:05:29;6.03;;;4.40;;
5483;SDS011;2764;48.794;8.326;2022-11-20T01:06:36;8.75;;;4.95;;
5483;SDS011;2764;48.794;8.326;2022-11-20T01:07:40;8.93;;;5.20;;
5483;SDS011;2764;48.794;8.326;2022-11-20T01:08:42;4.60;;;4.40;;
5483;SDS011;2764;48.794;8.326;2022-11-20T01:09:44;5.55;;;4.95;;
5483;SDS011;2764;48.794;8.326;2022-11-20T01:10:46;8.57;;;4.80;;
5483;SDS011;2764;48.794;8.326;2022-11-20T01:11:48;4.90;;;4.50;;
5483;SDS011;2764;48.794;8.326;2022-11-20T01:12:49;5.97;;;4.35;;
5483;SDS011;2764;48.794;8.326;2022-11-20T01:14:18;5.25;;;4.45;;
5483;SDS011;2764;48.794;8.326;2022-11-20T01:15:21;5.13;;;4.35;;
5483;SDS011;2764;48.794;8.326;2022-11-20T01:16:23;6.82;;;5.18;;
5483;SDS011;2764;48.794;8.326;2022-11-20T01:17:30;4.10;;;3.80;;
5483;SDS011;2764;48.794;8.326;2022-11-20T01:18:32;4.45;;;4.15;;
5483;SDS011;2764;48.794;8.326;2022-11-20T01:19:34;4.30;;;4.00;;
5483;SDS011;2764;48.794;8.326;2022-11-20T01:20:36;8.90;;;4.90;;
5483;SDS011;2764;48.794;8.326;2022-11-20T01:21:39;4.28;;;3.97;;
5483;SDS011;2764;48.794;8.326;2022-11-20T01:22:42;4.10;;;3.70;;
5483;SDS011;2764;48.794;8.326;2022-11-20T01:23:43;4.05;;;3.75;;
5483;SDS011;2764;48.794;8.326;2022-11-20T01:24:46;4.82;;;4.30;;
5483;SDS011;2764;48.794;8.326;2022-11-20T01:25:47;3.92;;;3.58;;
5483;SDS011;2764;48.794;8.326;2022-11-20T01:26:49;4.63;;;3.88;;
5483;SDS011;2764;48.794;8.326;2022-11-20T01:27:52;5.28;;;3.90;;
5483;SDS011;2764;48.794;8.326;2022-11-20T01:28:54;4.30;;;3.65;;
5483;SDS011;2764;48.794;8.326;2022-11-20T01:29:57;4.40;;;3.95;;
5483;SDS011;2764;48.794;8.326;2022-11-20T01:31:02;4.75;;;4.32;;
5483;SDS011;2764;48.794;8.326;2022-11-20T01:32:16;4.22;;;4.03;;
5483;SDS011;2764;48.794;8.326;2022-11-20T01:33:17;6.47;;;4.15;;
5483;SDS011;2764;48.794;8.326;2022-11-20T01:34:19;4.85;;;4.45;;
5483;SDS011;2764;48.794;8.326;2022-11-20T01:35:23;4.43;;;4.00;;
5483;SDS011;2764;48.794;8.326;2022-11-20T01:36:26;4.60;;;3.80;;
5483;SDS011;2764;48.794;8.326;2022-11-20T01:37:29;3.50;;;3.30;;
5483;SDS011;2764;48.794;8.326;2022-11-20T01:38:30;4.28;;;3.75;;
5483;SDS011;2764;48.794;8.326;2022-11-20T01:39:32;4.07;;;3.33;;
5483;SDS011;2764;48.794;8.326;2022-11-20T01:40:34;4.55;;;4.13;;
5483;SDS011;2764;48.794;8.326;2022-11-20T01:41:35;3.63;;;3.42;;
5483;SDS011;2764;48.794;8.326;2022-11-20T01:43:01;3.83;;;3.47;;
5483;SDS011;2764;48.794;8.326;2022-11-20T01:47:05;7.10;;;3.92;;
5483;SDS011;2764;48.794;8.326;2022-11-20T01:48:08;4.95;;;4.40;;
5483;SDS011;2764;48.794;8.326;2022-11-20T01:49:17;4.78;;;4.35;;
5483;SDS011;2764;48.794;8.326;2022-11-20T01:50:24;4.03;;;3.30;;
5483;SDS011;2764;48.794;8.326;2022-11-20T01:52:14;6.05;;;3.75;;
5483;SDS011;2764;48.794;8.326;2022-11-20T01:53:02;6.22;;;3.58;;
5483;SDS011;2764;48.794;8.326;2022-11-20T01:54:10;4.55;;;3.40;;
5483;SDS011;2764;48.794;8.326;2022-11-20T01:55:21;4.90;;;3.90;;
5483;SDS011;2764;48.794;8.326;2022-11-20T01:56:27;5.40;;;4.03;;
5483;SDS011;2764;48.794;8.326;2022-11-20T01:57:33;4.18;;;3.85;;
5483;SDS011;2764;48.794;8.326;2022-11-20T01:58:37;4.35;;;4.05;;
5483;SDS011;2764;48.794;8.326;2022-11-20T01:59:45;4.90;;;3.90;;
5483;SDS011;2764;48.794;8.326;2022-11-20T02:00:53;5.40;;;3.80;;
5483;SDS011;2764;48.794;8.326;2022-11-20T02:01:55;4.13;;;3.83;;
5483;SDS011;2764;48.794;8.326;2022-11-20T02:02:57;4.10;;;3.80;;
5483;SDS011;2764;48.794;8.326;2022-11-20T02:04:02;4.18;;;3.78;;
5483;SDS011;2764;48.794;8.326;2022-11-20T02:05:07;4.00;;;3.60;;
5483;SDS011;2764;48.794;8.326;2022-11-20T02:06:18;3.92;;;3.53;;
5483;SDS011;2764;48.794;8.326;2022-11-20T02:07:24;4.75;;;4.05;;
5483;SDS011;2764;48.794;8.326;2022-11-20T02:08:25;3.50;;;3.20;;
5483;SDS011;2764;48.794;8.326;2022-11-20T02:09:27;7.25;;;4.40;;
5483;SDS011;2764;48.794;8.326;2022-11-20T02:10:30;4.78;;;4.20;;
5483;SDS011;2764;48.794;8.326;2022-11-20T02:11:32;5.35;;;3.85;;
5483;SDS011;2764;48.794;8.326;2022-11-20T02:12:33;3.55;;;3.25;;
5483;SDS011;2764;48.794;8.326;2022-11-20T02:13:53;4.85;;;3.65;;
5483;SDS011;2764;48.794;8.326;2022-11-20T02:14:57;4.18;;;3.78;;
5483;SDS011;2764;48.794;8.326;2022-11-20T02:15:59;9.88;;;5.35;;
5483;SDS011;2764;48.794;8.326;2022-11-20T02:17:01;5.55;;;4.13;;
5483;SDS011;2764;48.794;8.326;2022-11-20T02:18:02;5.00;;;4.60;;
5483;SDS011;2764;48.794;8.326;2022-11-20T02:19:07;7.85;;;3.95;;
5483;SDS011;2764;48.794;8.326;2022-11-20T02:20:16;4.50;;;4.18;;
5483;SDS011;2764;48.794;8.326;2022-11-20T02:21:24;4.70;;;3.67;;
5483;SDS011;2764;48.794;8.326;2022-11-20T02:24:19;4.82;;;3.85;;
5483;SDS011;2764;48.794;8.326;2022-11-20T02:25:22;3.40;;;3.20;;
5483;SDS011;2764;48.794;8.326;2022-11-20T02:26:26;5.80;;;3.70;;
5483;SDS011;2764;48.794;8.326;2022-11-20T02:27:30;3.60;;;3.30;;
5483;SDS011;2764;48.794;8.326;2022-11-20T02:28:31;4.50;;;4.20;;
5483;SDS011;2764;48.794;8.326;2022-11-20T02:30:40;4.75;;;4.28;;
5483;SDS011;2764;48.794;8.326;2022-11-20T02:31:42;5.45;;;4.15;;
5483;SDS011;2764;48.794;8.326;2022-11-20T02:32:45;9.95;;;4.40;;
5483;SDS011;2764;48.794;8.326;2022-11-20T02:33:46;4.72;;;4.22;;
5483;SDS011;2764;48.794;8.326;2022-11-20T02:34:48;4.40;;;4.00;;
5483;SDS011;2764;48.794;8.326;2022-11-20T02:35:50;7.13;;;4.18;;
5483;SDS011;2764;48.794;8.326;2022-11-20T02:36:51;4.13;;;3.72;;
5483;SDS011;2764;48.794;8.326;2022-11-20T02:37:54;5.43;;;4.85;;
5483;SDS011;2764;48.794;8.326;2022-11-20T02:38:59;4.18;;;3.78;;
5483;SDS011;2764;48.794;8.326;2022-11-20T02:40:01;4.97;;;3.95;;
5483;SDS011;2764;48.794;8.326;2022-11-20T02:41:03;5.47;;;4.70;;
5483;SDS011;2764;48.794;8.326;2022-11-20T02:42:04;4.40;;;4.10;;
5483;SDS011;2764;48.794;8.326;2022-11-20T02:43:06;6.05;;;4.25;;
5483;SDS011;2764;48.794;8.326;2022-11-20T02:44:08;5.13;;;4.63;;
5483;SDS011;2764;48.794;8.326;2022-11-20T02:45:10;4.68;;;4.25;;
5483;SDS011;2764;48.794;8.326;2022-11-20T02:46:12;5.30;;;3.53;;
5483;SDS011;2764;48.794;8.326;2022-11-20T02:47:13;4.32;;;3.70;;
5483;SDS011;2764;48.794;8.326;2022-11-20T02:48:15;4.47;;;4.07;;
5483;SDS011;2764;48.794;8.326;2022-11-20T02:49:17;6.22;;;4.25;;
5483;SDS011;2764;48.794;8.326;2022-11-20T02:50:19;4.68;;;3.75;;
5483;SDS011;2764;48.794;8.326;2022-11-20T02:51:21;7.93;;;4.30;;
5483;SDS011;2764;48.794;8.326;2022-11-20T02:52:23;13.52;;;4.20;;
5483;SDS011;2764;48.794;8.326;2022-11-20T02:53:25;5.97;;;4.07;;
5483;SDS011;2764;48.794;8.326;2022-11-20T02:54:26;3.90;;;3.60;;
5483;SDS011;2764;48.794;8.326;2022-11-20T02:55:28;4.75;;;3.67;;
5483;SDS011;2764;48.794;8.326;2022-11-20T02:56:30;3.90;;;3.60;;
5483;SDS011;2764;48.794;8.326;2022-11-20T02:57:33;4.03;;;3.72;;
5483;SDS011;2764;48.794;8.326;2022-11-20T02:58:34;3.55;;;3.35;;
5483;SDS011;2764;48.794;8.326;2022-11-20T02:59:36;4.30;;;3.83;;
5483;SDS011;2764;48.794;8.326;2022-11-20T03:00:37;4.28;;;3.90;;
5483;SDS011;2764;48.794;8.326;2022-11-20T03:01:39;4.72;;;3.30;;
5483;SDS011;2764;48.794;8.326;2022-11-20T03:02:41;4.15;;;3.47;;
5483;SDS011;2764;48.794;8.326;2022-11-20T03:03:42;3.58;;;3.15;;
5483;SDS011;2764;48.794;8.326;2022-11-20T03:04:44;3.65;;;3.40;;
5483;SDS011;2764;48.794;8.326;2022-11-20T03:05:46;4.55;;;3.45;;
5483;SDS011;2764;48.794;8.326;2022-11-20T03:06:47;3.38;;;3.17;;
5483;SDS011;2764;48.794;8.326;2022-11-20T03:07:49;5.15;;;3.72;;
5483;SDS011;2764;48.794;8.326;2022-11-20T03:08:50;4.05;;;3.65;;
5483;SDS011;2764;48.794;8.326;2022-11-20T03:09:52;3.70;;;3.40;;
5483;SDS011;2764;48.794;8.326;2022-11-20T03:10:54;4.63;;;2.88;;
5483;SDS011;2764;48.794;8.326;2022-11-20T03:11:55;3.25;;;2.95;;
5483;SDS011;2764;48.794;8.326;2022-11-20T03:12:57;3.75;;;3.55;;
5483;SDS011;2764;48.794;8.326;2022-11-20T03:14:01;3.33;;;3.03;;
5483;SDS011;2764;48.794;8.326;2022-11-20T03:15:04;3.88;;;3.45;;
5483;SDS011;2764;48.794;8.326;2022-11-20T03:16:07;3.50;;;3.20;;
5483;SDS011;2764;48.794;8.326;2022-11-20T03:17:19;3.40;;;3.10;;
5483;SDS011;2764;48.794;8.326;2022-11-20T03:18:21;3.97;;;3.33;;
5483;SDS011;2764;48.794;8.326;2022-11-20T03:19:22;3.97;;;3.65;;
5483;SDS011;2764;48.794;8.326;2022-11-20T03:20:24;3.63;;;3.33;;
5483;SDS011;2764;48.794;8.326;2022-11-20T03:21:26;3.65;;;3.35;;
5483;SDS011;2764;48.794;8.326;2022-11-20T03:22:30;6.80;;;4.07;;
5483;SDS011;2764;48.794;8.326;2022-11-20T03:23:32;3.72;;;3.30;;
5483;SDS011;2764;48.794;8.326;2022-11-20T03:24:35;4.60;;;3.55;;
5483;SDS011;2764;48.794;8.326;2022-11-20T03:25:36;4.50;;;3.67;;
5483;SDS011;2764;48.794;8.326;2022-11-20T03:26:38;4.38;;;3.58;;
5483;SDS011;2764;48.794;8.326;2022-11-20T03:27:40;3.70;;;3.50;;
5483;SDS011;2764;48.794;8.326;2022-11-20T03:28:42;3.67;;;3.47;;
5483;SDS011;2764;48.794;8.326;2022-11-20T03:29:48;3.92;;;3.63;;
5483;SDS011;2764;48.794;8.326;2022-11-20T03:30:50;7.47;;;3.45;;
5483;SDS011;2764;48.794;8.326;2022-11-20T03:31:51;7.32;;;4.07;;
5483;SDS011;2764;48.794;8.326;2022-11-20T03:32:53;3.85;;;3.50;;
5483;SDS011;2764;48.794;8.326;2022-11-20T03:33:56;4.18;;;3.90;;
5483;SDS011;2764;48.794;8.326;2022-11-20T03:34:59;4.53;;;3.42;;
5483;SDS011;2764;48.794;8.326;2022-11-20T03:36:01;3.95;;;3.55;;
5483;SDS011;2764;48.794;8.326;2022-11-20T03:37:04;6.15;;;3.42;;
5483;SDS011;2764;48.794;8.326;2022-11-20T03:38:05;4.35;;;4.05;;
5483;SDS011;2764;48.794;8.326;2022-11-20T03:39:07;3.72;;;3.47;;
5483;SDS011;2764;48.794;8.326;2022-11-20T03:40:09;4.63;;;3.63;;
5483;SDS011;2764;48.794;8.326;2022-11-20T03:41:14;6.20;;;3.05;;
5483;SDS011;2764;48.794;8.326;2022-11-20T03:42:18;5.28;;;3.33;;
5483;SDS011;2764;48.794;8.326;2022-11-20T03:43:39;3.85;;;3.47;;
5483;SDS011;2764;48.794;8.326;2022-11-20T03:44:41;3.85;;;3.65;;
5483;SDS011;2764;48.794;8.326;2022-11-20T03:45:43;4.32;;;3.85;;
5483;SDS011;2764;48.794;8.326;2022-11-20T03:46:44;3.50;;;3.30;;
5483;SDS011;2764;48.794;8.326;2022-11-20T03:47:46;7.85;;;4.38;;
5483;SDS011;2764;48.794;8.326;2022-11-20T03:48:48;3.47;;;3.25;;
5483;SDS011;2764;48.794;8.326;2022-11-20T03:49:52;4.28;;;3.90;;
5483;SDS011;2764;48.794;8.326;2022-11-20T03:51:14;4.20;;;3.90;;
5483;SDS011;2764;48.794;8.326;2022-11-20T03:52:17;4.90;;;4.32;;
5483;SDS011;2764;48.794;8.326;2022-11-20T03:53:19;4.85;;;4.07;;
5483;SDS011;2764;48.794;8.326;2022-11-20T03:54:21;4.35;;;3.67;;
5483;SDS011;2764;48.794;8.326;2022-11-20T03:55:22;3.40;;;3.10;;
5483;SDS011;2764;48.794;8.326;2022-11-20T03:56:25;6.88;;;3.65;;
5483;SDS011;2764;48.794;8.326;2022-11-20T03:57:29;4.15;;;3.75;;
5483;SDS011;2764;48.794;8.326;2022-11-20T03:58:30;4.00;;;3.60;;
5483;SDS011;2764;48.794;8.326;2022-11-20T03:59:32;8.25;;;4.00;;
5483;SDS011;2764;48.794;8.326;2022-11-20T04:00:34;4.35;;;3.95;;
5483;SDS011;2764;48.794;8.326;2022-11-20T04:01:36;3.97;;;3.55;;
5483;SDS011;2764;48.794;8.326;2022-11-20T04:02:48;3.38;;;3.08;;
5483;SDS011;2764;48.794;8.326;2022-11-20T04:03:51;4.55;;;3.67;;
5483;SDS011;2764;48.794;8.326;2022-11-20T04:04:53;3.60;;;3.35;;
5483;SDS011;2764;48.794;8.326;2022-11-20T04:05:55;4.50;;;3.53;;
5483;SDS011;2764;48.794;8.326;2022-11-20T04:07:02;3.63;;;3.33;;
5483;SDS011;2764;48.794;8.326;2022-11-20T04:08:04;10.38;;;3.42;;
5483;SDS011;2764;48.794;8.326;2022-11-20T04:09:06;3.97;;;3.65;;
5483;SDS011;2764;48.794;8.326;2022-11-20T04:10:08;4.30;;;4.00;;
5483;SDS011;2764;48.794;8.326;2022-11-20T04:11:17;3.80;;;3.50;;
5483;SDS011;2764;48.794;8.326;2022-11-20T04:12:20;3.88;;;3.58;;
5483;SDS011;2764;48.794;8.326;2022-11-20T04:13:21;4.25;;;3.80;;
5483;SDS011;2764;48.794;8.326;2022-11-20T04:14:23;3.65;;;3.35;;
5483;SDS011;2764;48.794;8.326;2022-11-20T04:15:25;6.15;;;3.63;;
5483;SDS011;2764;48.794;8.326;2022-11-20T04:16:29;4.47;;;3.83;;
5483;SDS011;2764;48.794;8.326;2022-11-20T04:17:32;5.80;;;3.40;;
5483;SDS011;2764;48.794;8.326;2022-11-20T04:18:34;6.80;;;4.13;;
5483;SDS011;2764;48.794;8.326;2022-11-20T04:19:36;4.18;;;3.95;;
5483;SDS011;2764;48.794;8.326;2022-11-20T04:20:37;4.75;;;4.13;;
5483;SDS011;2764;48.794;8.326;2022-11-20T04:21:39;5.05;;;4.10;;
5483;SDS011;2764;48.794;8.326;2022-11-20T04:22:40;4.25;;;3.75;;
5483;SDS011;2764;48.794;8.326;2022-11-20T04:23:42;4.07;;;3.78;;
5483;SDS011;2764;48.794;8.326;2022-11-20T04:24:44;4.85;;;4.07;;
5483;SDS011;2764;48.794;8.326;2022-11-20T04:25:45;5.85;;;4.20;;
5483;SDS011;2764;48.794;8.326;2022-11-20T04:26:47;3.85;;;3.65;;
5483;SDS011;2764;48.794;8.326;2022-11-20T04:27:48;3.40;;;3.20;;
5483;SDS011;2764;48.794;8.326;2022-11-20T04:28:50;4.40;;;3.70;;
5483;SDS011;2764;48.794;8.326;2022-11-20T04:29:52;7.20;;;3.47;;
5483;SDS011;2764;48.794;8.326;2022-11-20T04:30:53;4.50;;;3.55;;
5483;SDS011;2764;48.794;8.326;2022-11-20T04:31:55;3.58;;;3.25;;
5483;SDS011;2764;48.794;8.326;2022-11-20T04:32:56;3.30;;;3.05;;
5483;SDS011;2764;48.794;8.326;2022-11-20T04:33:59;4.00;;;3.00;;
5483;SDS011;2764;48.794;8.326;2022-11-20T04:35:04;3.60;;;3.30;;
5483;SDS011;2764;48.794;8.326;2022-11-20T04:36:10;4.20;;;3.38;;
5483;SDS011;2764;48.794;8.326;2022-11-20T04:37:14;5.68;;;3.60;;
5483;SDS011;2764;48.794;8.326;2022-11-20T04:38:16;3.70;;;3.40;;
5483;SDS011;2764;48.794;8.326;2022-11-20T04:39:17;3.35;;;2.92;;
5483;SDS011;2764;48.794;8.326;2022-11-20T04:40:19;6.07;;;3.60;;
5483;SDS011;2764;48.794;8.326;2022-11-20T04:41:21;2.92;;;2.63;;
5483;SDS011;2764;48.794;8.326;2022-11-20T04:42:24;2.70;;;2.60;;
5483;SDS011;2764;48.794;8.326;2022-11-20T04:43:32;3.90;;;2.83;;
5483;SDS011;2764;48.794;8.326;2022-11-20T04:44:34;3.53;;;3.22;;
5483;SDS011;2764;48.794;8.326;2022-11-20T04:45:36;3.30;;;3.13;;
5483;SDS011;2764;48.794;8.326;2022-11-20T04:46:39;3.15;;;2.72;;
5483;SDS011;2764;48.794;8.326;2022-11-20T04:47:42;3.22;;;3.03;;
5483;SDS011;2764;48.794;8.326;2022-11-20T04:48:43;4.45;;;2.83;;
5483;SDS011;2764;48.794;8.326;2022-11-20T04:49:45;3.20;;;3.00;;
5483;SDS011;2764;48.794;8.326;2022-11-20T04:50:47;2.50;;;2.30;;
5483;SDS011;2764;48.794;8.326;2022-11-20T04:51:49;4.15;;;2.72;;
5483;SDS011;2764;48.794;8.326;2022-11-20T04:52:54;2.58;;;2.47;;
5483;SDS011;2764;48.794;8.326;2022-11-20T04:53:56;3.42;;;2.63;;
5483;SDS011;2764;48.794;8.326;2022-11-20T04:54:57;3.20;;;2.80;;
5483;SDS011;2764;48.794;8.326;2022-11-20T04:56:09;4.50;;;3.10;;
5483;SDS011;2764;48.794;8.326;2022-11-20T04:57:12;2.65;;;2.55;;
5483;SDS011;2764;48.794;8.326;2022-11-20T04:58:15;2.78;;;2.58;;
5483;SDS011;2764;48.794;8.326;2022-11-20T04:59:17;2.50;;;2.30;;
5483;SDS011;2764;48.794;8.326;2022-11-20T05:00:19;3.75;;;3.05;;
5483;SDS011;2764;48.794;8.326;2022-11-20T05:01:22;3.30;;;3.00;;
5483;SDS011;2764;48.794;8.326;2022-11-20T05:02:25;4.38;;;3.28;;
5483;SDS011;2764;48.794;8.326;2022-11-20T05:03:27;4.50;;;3.10;;
5483;SDS011;2764;48.794;8.326;2022-11-20T05:04:28;2.40;;;2.30;;
5483;SDS011;2764;48.794;8.326;2022-11-20T05:05:30;3.28;;;2.85;;
5483;SDS011;2764;48.794;8.326;2022-11-20T05:06:31;3.03;;;2.83;;
5483;SDS011;2764;48.794;8.326;2022-11-20T05:07:33;2.70;;;2.60;;
5483;SDS011;2764;48.794;8.326;2022-11-20T05:08:35;2.80;;;2.70;;
5483;SDS011;2764;48.794;8.326;2022-11-20T05:09:37;2.83;;;2.70;;
5483;SDS011;2764;48.794;8.326;2022-11-20T05:10:39;3.28;;;2.50;;
5483;SDS011;2764;48.794;8.326;2022-11-20T05:11:40;3.42;;;2.80;;
5483;SDS011;2764;48.794;8.326;2022-11-20T05:12:42;2.90;;;2.67;;
5483;SDS011;2764;48.794;8.326;2022-11-20T05:13:44;2.95;;;2.75;;
5483;SDS011;2764;48.794;8.326;2022-11-20T05:14:46;2.92;;;2.83;;
5483;SDS011;2764;48.794;8.326;2022-11-20T05:15:48;8.50;;;2.90;;
5483;SDS011;2764;48.794;8.326;2022-11-20T05:16:49;2.75;;;2.65;;
5483;SDS011;2764;48.794;8.326;2022-11-20T05:17:51;3.58;;;2.80;;
5483;SDS011;2764;48.794;8.326;2022-11-20T05:18:54;3.05;;;2.80;;
5483;SDS011;2764;48.794;8.326;2022-11-20T05:19:56;3.53;;;3.22;;
5483;SDS011;2764;48.794;8.326;2022-11-20T05:20:58;3.53;;;3.22;;
5483;SDS011;2764;48.794;8.326;2022-11-20T05:22:00;2.80;;;2.55;;
5483;SDS011;2764;48.794;8.326;2022-11-20T05:23:01;6.25;;;3.10;;
5483;SDS011;2764;48.794;8.326;2022-11-20T05:24:03;4.13;;;3.72;;
5483;SDS011;2764;48.794;8.326;2022-11-20T05:25:06;4.13;;;3.80;;
5483;SDS011;2764;48.794;8.326;2022-11-20T05:26:08;3.58;;;3.20;;
5483;SDS011;2764;48.794;8.326;2022-11-20T05:27:15;4.18;;;3.00;;
5483;SDS011;2764;48.794;8.326;2022-11-20T05:28:17;4.95;;;3.08;;
5483;SDS011;2764;48.794;8.326;2022-11-20T05:29:18;2.80;;;2.70;;
5483;SDS011;2764;48.794;8.326;2022-11-20T05:30:20;3.20;;;2.97;;
5483;SDS011;2764;48.794;8.326;2022-11-20T05:31:23;2.85;;;2.65;;
5483;SDS011;2764;48.794;8.326;2022-11-20T05:32:28;2.47;;;2.30;;
5483;SDS011;2764;48.794;8.326;2022-11-20T05:33:30;2.70;;;2.50;;
5483;SDS011;2764;48.794;8.326;2022-11-20T05:34:31;3.00;;;2.80;;
5483;SDS011;2764;48.794;8.326;2022-11-20T05:35:33;3.60;;;2.60;;
5483;SDS011;2764;48.794;8.326;2022-11-20T05:36:35;3.75;;;2.60;;
5483;SDS011;2764;48.794;8.326;2022-11-20T05:37:36;3.10;;;2.90;;
5483;SDS011;2764;48.794;8.326;2022-11-20T05:38:38;5.65;;;2.67;;
5483;SDS011;2764;48.794;8.326;2022-11-20T05:39:40;2.58;;;2.20;;
5483;SDS011;2764;48.794;8.326;2022-11-20T05:40:42;2.67;;;2.50;;
5483;SDS011;2764;48.794;8.326;2022-11-20T05:41:44;2.45;;;2.35;;
5483;SDS011;2764;48.794;8.326;2022-11-20T05:42:46;2.80;;;2.47;;
5483;SDS011;2764;48.794;8.326;2022-11-20T05:43:48;5.88;;;2.60;;
5483;SDS011;2764;48.794;8.326;2022-11-20T05:44:51;3.00;;;2.80;;
5483;SDS011;2764;48.794;8.326;2022-11-20T05:45:53;2.65;;;2.45;;
5483;SDS011;2764;48.794;8.326;2022-11-20T05:46:56;2.47;;;2.28;;
5483;SDS011;2764;48.794;8.326;2022-11-20T05:47:58;2.13;;;2.03;;
5483;SDS011;2764;48.794;8.326;2022-11-20T05:49:01;3.00;;;2.22;;
5483;SDS011;2764;48.794;8.326;2022-11-20T05:50:02;1.90;;;1.80;;
5483;SDS011;2764;48.794;8.326;2022-11-20T05:51:05;2.15;;;2.00;;
5483;SDS011;2764;48.794;8.326;2022-11-20T05:52:09;2.00;;;1.90;;
5483;SDS011;2764;48.794;8.326;2022-11-20T05:53:10;2.13;;;2.03;;
5483;SDS011;2764;48.794;8.326;2022-11-20T05:54:12;2.35;;;2.15;;
5483;SDS011;2764;48.794;8.326;2022-11-20T05:55:14;2.10;;;1.92;;
5483;SDS011;2764;48.794;8.326;2022-11-20T05:56:17;2.50;;;2.30;;
5483;SDS011;2764;48.794;8.326;2022-11-20T05:57:20;2.75;;;2.55;;
5483;SDS011;2764;48.794;8.326;2022-11-20T05:58:21;2.58;;;2.10;;
5483;SDS011;2764;48.794;8.326;2022-11-20T05:59:23;1.95;;;1.85;;
5483;SDS011;2764;48.794;8.326;2022-11-20T06:00:25;1.85;;;1.75;;
5483;SDS011;2764;48.794;8.326;2022-11-20T06:01:26;2.45;;;1.83;;
5483;SDS011;2764;48.794;8.326;2022-11-20T06:02:28;2.40;;;2.22;;
5483;SDS011;2764;48.794;8.326;2022-11-20T06:03:30;1.95;;;1.85;;
5483;SDS011;2764;48.794;8.326;2022-11-20T06:04:31;2.55;;;2.33;;
5483;SDS011;2764;48.794;8.326;2022-11-20T06:05:33;2.35;;;2.25;;
5483;SDS011;2764;48.794;8.326;2022-11-20T06:06:35;1.63;;;1.63;;
5483;SDS011;2764;48.794;8.326;2022-11-20T06:07:36;2.00;;;1.90;;
5483;SDS011;2764;48.794;8.326;2022-11-20T06:08:38;6.40;;;2.30;;
5483;SDS011;2764;48.794;8.326;2022-11-20T06:09:40;1.92;;;1.83;;
5483;SDS011;2764;48.794;8.326;2022-11-20T06:10:41;4.95;;;2.30;;
5483;SDS011;2764;48.794;8.326;2022-11-20T06:11:43;2.30;;;2.20;;
5483;SDS011;2764;48.794;8.326;2022-11-20T06:12:45;2.00;;;1.90;;
5483;SDS011;2764;48.794;8.326;2022-11-20T06:13:48;3.20;;;3.00;;
5483;SDS011;2764;48.794;8.326;2022-11-20T06:14:49;2.45;;;2.33;;
5483;SDS011;2764;48.794;8.326;2022-11-20T06:15:52;2.95;;;2.75;;
5483;SDS011;2764;48.794;8.326;2022-11-20T06:16:54;2.05;;;1.95;;
5483;SDS011;2764;48.794;8.326;2022-11-20T06:17:56;2.15;;;2.05;;
5483;SDS011;2764;48.794;8.326;2022-11-20T06:18:57;1.80;;;1.70;;
5483;SDS011;2764;48.794;8.326;2022-11-20T06:19:59;2.30;;;2.10;;
5483;SDS011;2764;48.794;8.326;2022-11-20T06:21:02;1.60;;;1.50;;
5483;SDS011;2764;48.794;8.326;2022-11-20T06:22:05;2.67;;;2.58;;
5483;SDS011;2764;48.794;8.326;2022-11-20T06:23:07;2.03;;;1.92;;
5483;SDS011;2764;48.794;8.326;2022-11-20T06:24:09;4.35;;;2.65;;
5483;SDS011;2764;48.794;8.326;2022-11-20T06:25:12;3.20;;;1.70;;
5483;SDS011;2764;48.794;8.326;2022-11-20T06:26:15;3.47;;;1.73;;
5483;SDS011;2764;48.794;8.326;2022-11-20T06:27:19;2.38;;;2.17;;
5483;SDS011;2764;48.794;8.326;2022-11-20T06:28:21;3.80;;;2.65;;
5483;SDS011;2764;48.794;8.326;2022-11-20T06:29:23;2.45;;;2.25;;
5483;SDS011;2764;48.794;8.326;2022-11-20T06:30:30;3.17;;;1.70;;
5483;SDS011;2764;48.794;8.326;2022-11-20T06:31:31;2.20;;;2.10;;
5483;SDS011;2764;48.794;8.326;2022-11-20T06:32:38;3.08;;;1.92;;
5483;SDS011;2764;48.794;8.326;2022-11-20T06:33:40;2.85;;;1.90;;
5483;SDS011;2764;48.794;8.326;2022-11-20T06:34:43;1.60;;;1.50;;
5483;SDS011;2764;48.794;8.326;2022-11-20T06:35:45;1.50;;;1.45;;
5483;SDS011;2764;48.794;8.326;2022-11-20T06:36:46;1.50;;;1.40;;
5483;SDS011;2764;48.794;8.326;2022-11-20T06:37:48;1.77;;;1.35;;